sensor_id;sensor_type;location;lat;lon;timestamp;P1;durP1;ratioP1;P2;durP2;ratioP2
32501;SDS011;18952;52.516;13.460;2023-09-12T00:00:20;29.55;;;15.18;;
32501;SDS011;18952;52.516;13.460;2023-09-12T00:02:47;24.13;;;14.30;;
32501;SDS011;18952;52.516;13.460;2023-09-12T00:05:14;26.08;;;15.48;;
32501;SDS011;18952;52.516;13.460;2023-09-12T00:07:41;26.02;;;15.02;;
32501;SDS011;18952;52.516;13.460;2023-09-12T00:10:07;22.77;;;14.98;;
32501;SDS011;18952;52.516;13.460;2023-09-12T00:12:35;28.73;;;15.32;;
32501;SDS011;18952;52.516;13.460;2023-09-12T00:15:01;26.25;;;15.57;;
32501;SDS011;18952;52.516;13.460;2023-09-12T00:17:30;29.05;;;14.80;;
32501;SDS011;18952;52.516;13.460;2023-09-12T00:19:56;21.67;;;15.32;;
32501;SDS011;18952;52.516;13.460;2023-09-12T00:22:23;26.67;;;15.20;;
32501;SDS011;18952;52.516;13.460;2023-09-12T00:24:50;23.55;;;15.18;;
32501;SDS011;18952;52.516;13.460;2023-09-12T00:27:17;27.08;;;15.38;;
32501;SDS011;18952;52.516;13.460;2023-09-12T00:29:46;29.48;;;14.82;;
32501;SDS011;18952;52.516;13.460;2023-09-12T00:32:13;26.92;;;15.63;;
32501;SDS011;18952;52.516;13.460;2023-09-12T00:34:40;26.15;;;15.27;;
32501;SDS011;18952;52.516;13.460;2023-09-12T00:37:06;23.48;;;15.30;;
32501;SDS011;18952;52.516;13.460;2023-09-12T00:39:33;26.30;;;15.75;;
32501;SDS011;18952;52.516;13.460;2023-09-12T00:42:00;23.85;;;15.88;;
32501;SDS011;18952;52.516;13.460;2023-09-12T00:44:27;29.05;;;15.88;;
32501;SDS011;18952;52.516;13.460;2023-09-12T00:46:54;26.50;;;15.73;;
32501;SDS011;18952;52.516;13.460;2023-09-12T00:49:21;30.63;;;15.55;;
32501;SDS011;18952;52.516;13.460;2023-09-12T00:51:48;32.72;;;16.13;;
32501;SDS011;18952;52.516;13.460;2023-09-12T00:54:16;27.85;;;14.77;;
32501;SDS011;18952;52.516;13.460;2023-09-12T00:56:43;22.35;;;15.35;;
32501;SDS011;18952;52.516;13.460;2023-09-12T00:59:11;24.63;;;15.15;;
32501;SDS011;18952;52.516;13.460;2023-09-12T01:01:39;25.25;;;15.43;;
32501;SDS011;18952;52.516;13.460;2023-09-12T01:04:06;21.80;;;14.38;;
32501;SDS011;18952;52.516;13.460;2023-09-12T01:06:45;28.42;;;16.63;;
32501;SDS011;18952;52.516;13.460;2023-09-12T01:09:12;28.77;;;15.65;;
32501;SDS011;18952;52.516;13.460;2023-09-12T01:11:39;26.38;;;16.52;;
32501;SDS011;18952;52.516;13.460;2023-09-12T01:14:07;22.42;;;15.23;;
32501;SDS011;18952;52.516;13.460;2023-09-12T01:16:33;26.02;;;15.65;;
32501;SDS011;18952;52.516;13.460;2023-09-12T01:19:00;33.40;;;16.00;;
32501;SDS011;18952;52.516;13.460;2023-09-12T01:21:35;25.55;;;16.10;;
32501;SDS011;18952;52.516;13.460;2023-09-12T01:26:59;27.05;;;16.20;;
32501;SDS011;18952;52.516;13.460;2023-09-12T01:29:45;27.35;;;15.48;;
32501;SDS011;18952;52.516;13.460;2023-09-12T01:32:15;25.10;;;15.65;;
32501;SDS011;18952;52.516;13.460;2023-09-12T01:34:45;26.17;;;15.40;;
32501;SDS011;18952;52.516;13.460;2023-09-12T01:37:13;24.30;;;15.43;;
32501;SDS011;18952;52.516;13.460;2023-09-12T01:39:40;29.45;;;16.15;;
32501;SDS011;18952;52.516;13.460;2023-09-12T01:42:08;26.40;;;15.90;;
32501;SDS011;18952;52.516;13.460;2023-09-12T01:44:39;27.17;;;16.15;;
32501;SDS011;18952;52.516;13.460;2023-09-12T01:47:09;28.35;;;16.33;;
32501;SDS011;18952;52.516;13.460;2023-09-12T01:49:39;34.95;;;15.95;;
32501;SDS011;18952;52.516;13.460;2023-09-12T01:52:08;26.67;;;16.30;;
32501;SDS011;18952;52.516;13.460;2023-09-12T01:54:36;23.60;;;15.65;;
32501;SDS011;18952;52.516;13.460;2023-09-12T01:57:04;24.52;;;15.60;;
32501;SDS011;18952;52.516;13.460;2023-09-12T01:59:31;29.52;;;15.70;;
32501;SDS011;18952;52.516;13.460;2023-09-12T02:01:58;21.02;;;15.55;;
32501;SDS011;18952;52.516;13.460;2023-09-12T02:04:25;30.52;;;16.73;;
32501;SDS011;18952;52.516;13.460;2023-09-12T02:06:51;36.15;;;19.10;;
32501;SDS011;18952;52.516;13.460;2023-09-12T02:09:18;35.80;;;21.92;;
32501;SDS011;18952;52.516;13.460;2023-09-12T02:11:45;32.60;;;20.10;;
32501;SDS011;18952;52.516;13.460;2023-09-12T02:14:15;30.63;;;18.80;;
32501;SDS011;18952;52.516;13.460;2023-09-12T02:16:41;32.97;;;18.98;;
32501;SDS011;18952;52.516;13.460;2023-09-12T02:19:10;23.95;;;17.40;;
32501;SDS011;18952;52.516;13.460;2023-09-12T02:21:37;26.67;;;17.02;;
32501;SDS011;18952;52.516;13.460;2023-09-12T02:24:04;23.45;;;16.75;;
32501;SDS011;18952;52.516;13.460;2023-09-12T02:26:31;32.90;;;17.30;;
32501;SDS011;18952;52.516;13.460;2023-09-12T02:28:58;26.30;;;16.65;;
32501;SDS011;18952;52.516;13.460;2023-09-12T02:31:24;24.55;;;16.23;;
32501;SDS011;18952;52.516;13.460;2023-09-12T02:33:51;24.98;;;15.70;;
32501;SDS011;18952;52.516;13.460;2023-09-12T02:36:18;31.75;;;16.23;;
32501;SDS011;18952;52.516;13.460;2023-09-12T02:38:45;27.40;;;16.10;;
32501;SDS011;18952;52.516;13.460;2023-09-12T02:41:12;25.17;;;16.52;;
32501;SDS011;18952;52.516;13.460;2023-09-12T02:43:38;23.63;;;15.70;;
32501;SDS011;18952;52.516;13.460;2023-09-12T02:46:05;26.60;;;16.15;;
32501;SDS011;18952;52.516;13.460;2023-09-12T02:48:32;28.08;;;15.02;;
32501;SDS011;18952;52.516;13.460;2023-09-12T02:50:59;29.85;;;15.70;;
32501;SDS011;18952;52.516;13.460;2023-09-12T02:53:25;22.65;;;15.27;;
32501;SDS011;18952;52.516;13.460;2023-09-12T02:55:53;19.33;;;15.00;;
32501;SDS011;18952;52.516;13.460;2023-09-12T02:58:19;24.55;;;16.25;;
32501;SDS011;18952;52.516;13.460;2023-09-12T03:00:46;24.02;;;14.55;;
32501;SDS011;18952;52.516;13.460;2023-09-12T03:03:13;27.90;;;14.38;;
32501;SDS011;18952;52.516;13.460;2023-09-12T03:05:40;18.92;;;14.88;;
32501;SDS011;18952;52.516;13.460;2023-09-12T03:08:07;20.73;;;15.07;;
32501;SDS011;18952;52.516;13.460;2023-09-12T03:10:34;27.05;;;15.25;;
32501;SDS011;18952;52.516;13.460;2023-09-12T03:13:00;19.92;;;14.93;;
32501;SDS011;18952;52.516;13.460;2023-09-12T03:15:27;20.10;;;14.80;;
32501;SDS011;18952;52.516;13.460;2023-09-12T03:17:54;23.75;;;15.07;;
32501;SDS011;18952;52.516;13.460;2023-09-12T03:20:21;23.27;;;15.77;;
32501;SDS011;18952;52.516;13.460;2023-09-12T03:22:48;25.10;;;15.50;;
32501;SDS011;18952;52.516;13.460;2023-09-12T03:25:14;19.92;;;14.98;;
32501;SDS011;18952;52.516;13.460;2023-09-12T03:27:41;24.33;;;14.93;;
32501;SDS011;18952;52.516;13.460;2023-09-12T03:30:08;27.05;;;15.93;;
32501;SDS011;18952;52.516;13.460;2023-09-12T03:32:36;21.65;;;15.23;;
32501;SDS011;18952;52.516;13.460;2023-09-12T03:35:02;26.83;;;14.77;;
32501;SDS011;18952;52.516;13.460;2023-09-12T03:37:29;27.58;;;15.43;;
32501;SDS011;18952;52.516;13.460;2023-09-12T03:39:56;20.13;;;15.27;;
32501;SDS011;18952;52.516;13.460;2023-09-12T03:42:23;19.83;;;15.13;;
32501;SDS011;18952;52.516;13.460;2023-09-12T03:45:03;21.35;;;15.57;;
32501;SDS011;18952;52.516;13.460;2023-09-12T03:47:30;25.17;;;15.00;;
32501;SDS011;18952;52.516;13.460;2023-09-12T03:49:57;23.10;;;16.30;;
32501;SDS011;18952;52.516;13.460;2023-09-12T03:52:24;21.58;;;15.68;;
32501;SDS011;18952;52.516;13.460;2023-09-12T03:54:51;29.80;;;16.10;;
32501;SDS011;18952;52.516;13.460;2023-09-12T03:57:17;31.00;;;16.13;;
32501;SDS011;18952;52.516;13.460;2023-09-12T03:59:44;20.55;;;15.90;;
32501;SDS011;18952;52.516;13.460;2023-09-12T04:02:11;23.35;;;15.40;;
32501;SDS011;18952;52.516;13.460;2023-09-12T04:04:38;23.30;;;15.80;;
32501;SDS011;18952;52.516;13.460;2023-09-12T04:07:05;21.40;;;16.40;;
32501;SDS011;18952;52.516;13.460;2023-09-12T04:09:32;26.10;;;17.25;;
32501;SDS011;18952;52.516;13.460;2023-09-12T04:11:59;27.10;;;17.10;;
32501;SDS011;18952;52.516;13.460;2023-09-12T04:14:25;24.23;;;16.27;;
32501;SDS011;18952;52.516;13.460;2023-09-12T04:16:52;23.88;;;17.00;;
32501;SDS011;18952;52.516;13.460;2023-09-12T04:19:20;27.00;;;16.67;;
32501;SDS011;18952;52.516;13.460;2023-09-12T04:21:46;27.95;;;17.27;;
32501;SDS011;18952;52.516;13.460;2023-09-12T04:24:13;24.75;;;16.15;;
32501;SDS011;18952;52.516;13.460;2023-09-12T04:26:40;32.35;;;18.58;;
32501;SDS011;18952;52.516;13.460;2023-09-12T04:29:07;24.10;;;16.58;;
32501;SDS011;18952;52.516;13.460;2023-09-12T04:31:33;27.00;;;18.27;;
32501;SDS011;18952;52.516;13.460;2023-09-12T04:34:00;27.58;;;16.75;;
32501;SDS011;18952;52.516;13.460;2023-09-12T04:36:27;23.63;;;16.58;;
32501;SDS011;18952;52.516;13.460;2023-09-12T04:38:54;23.17;;;16.95;;
32501;SDS011;18952;52.516;13.460;2023-09-12T04:41:21;27.10;;;17.85;;
32501;SDS011;18952;52.516;13.460;2023-09-12T04:43:48;26.52;;;17.20;;
32501;SDS011;18952;52.516;13.460;2023-09-12T04:46:14;26.65;;;18.65;;
32501;SDS011;18952;52.516;13.460;2023-09-12T04:48:41;30.40;;;17.60;;
32501;SDS011;18952;52.516;13.460;2023-09-12T04:51:09;26.45;;;17.35;;
32501;SDS011;18952;52.516;13.460;2023-09-12T04:53:35;30.55;;;17.90;;
32501;SDS011;18952;52.516;13.460;2023-09-12T04:56:03;30.40;;;18.15;;
32501;SDS011;18952;52.516;13.460;2023-09-12T04:58:30;28.42;;;18.23;;
32501;SDS011;18952;52.516;13.460;2023-09-12T05:00:57;30.30;;;18.33;;
32501;SDS011;18952;52.516;13.460;2023-09-12T05:03:24;23.63;;;17.52;;
32501;SDS011;18952;52.516;13.460;2023-09-12T05:05:53;31.67;;;17.38;;
32501;SDS011;18952;52.516;13.460;2023-09-12T05:08:19;29.98;;;18.58;;
32501;SDS011;18952;52.516;13.460;2023-09-12T05:10:46;33.13;;;17.35;;
32501;SDS011;18952;52.516;13.460;2023-09-12T05:13:13;25.13;;;18.58;;
32501;SDS011;18952;52.516;13.460;2023-09-12T05:15:40;24.88;;;18.38;;
32501;SDS011;18952;52.516;13.460;2023-09-12T05:18:07;30.73;;;18.55;;
32501;SDS011;18952;52.516;13.460;2023-09-12T05:20:35;35.65;;;19.45;;
32501;SDS011;18952;52.516;13.460;2023-09-12T05:23:01;30.80;;;18.48;;
32501;SDS011;18952;52.516;13.460;2023-09-12T05:25:28;29.70;;;17.85;;
32501;SDS011;18952;52.516;13.460;2023-09-12T05:27:55;27.05;;;18.08;;
32501;SDS011;18952;52.516;13.460;2023-09-12T05:30:22;30.45;;;18.25;;
32501;SDS011;18952;52.516;13.460;2023-09-12T05:32:49;32.47;;;18.10;;
32501;SDS011;18952;52.516;13.460;2023-09-12T05:35:16;28.52;;;17.30;;
32501;SDS011;18952;52.516;13.460;2023-09-12T05:37:47;26.90;;;17.67;;
32501;SDS011;18952;52.516;13.460;2023-09-12T05:40:15;32.20;;;17.05;;
32501;SDS011;18952;52.516;13.460;2023-09-12T05:42:42;34.38;;;18.38;;
32501;SDS011;18952;52.516;13.460;2023-09-12T05:45:09;31.23;;;17.63;;
32501;SDS011;18952;52.516;13.460;2023-09-12T05:47:36;33.10;;;18.90;;
32501;SDS011;18952;52.516;13.460;2023-09-12T05:50:03;28.13;;;17.88;;
32501;SDS011;18952;52.516;13.460;2023-09-12T05:52:30;26.88;;;17.70;;
32501;SDS011;18952;52.516;13.460;2023-09-12T05:54:57;34.45;;;19.25;;
32501;SDS011;18952;52.516;13.460;2023-09-12T05:57:24;32.13;;;17.08;;
32501;SDS011;18952;52.516;13.460;2023-09-12T05:59:51;31.38;;;17.98;;
32501;SDS011;18952;52.516;13.460;2023-09-12T06:02:18;33.33;;;17.92;;
32501;SDS011;18952;52.516;13.460;2023-09-12T06:04:45;29.90;;;17.80;;
32501;SDS011;18952;52.516;13.460;2023-09-12T06:07:12;42.88;;;18.70;;
32501;SDS011;18952;52.516;13.460;2023-09-12T06:09:38;40.47;;;18.23;;
32501;SDS011;18952;52.516;13.460;2023-09-12T06:12:05;28.73;;;17.80;;
32501;SDS011;18952;52.516;13.460;2023-09-12T06:14:32;33.28;;;17.60;;
32501;SDS011;18952;52.516;13.460;2023-09-12T06:16:59;40.88;;;23.23;;
32501;SDS011;18952;52.516;13.460;2023-09-12T06:19:26;48.65;;;22.13;;
32501;SDS011;18952;52.516;13.460;2023-09-12T06:21:53;38.17;;;21.20;;
32501;SDS011;18952;52.516;13.460;2023-09-12T06:24:20;44.17;;;24.38;;
32501;SDS011;18952;52.516;13.460;2023-09-12T06:26:47;51.88;;;22.20;;
32501;SDS011;18952;52.516;13.460;2023-09-12T06:29:14;32.55;;;18.77;;
32501;SDS011;18952;52.516;13.460;2023-09-12T06:31:41;34.65;;;19.65;;
32501;SDS011;18952;52.516;13.460;2023-09-12T06:34:08;37.15;;;19.20;;
32501;SDS011;18952;52.516;13.460;2023-09-12T06:36:36;29.40;;;15.65;;
32501;SDS011;18952;52.516;13.460;2023-09-12T06:39:05;35.75;;;16.00;;
32501;SDS011;18952;52.516;13.460;2023-09-12T06:41:32;33.15;;;16.95;;
32501;SDS011;18952;52.516;13.460;2023-09-12T06:43:58;28.65;;;15.77;;
32501;SDS011;18952;52.516;13.460;2023-09-12T06:46:26;29.38;;;16.05;;
32501;SDS011;18952;52.516;13.460;2023-09-12T06:48:53;27.05;;;15.63;;
32501;SDS011;18952;52.516;13.460;2023-09-12T06:51:23;33.03;;;16.33;;
32501;SDS011;18952;52.516;13.460;2023-09-12T06:53:51;37.22;;;15.35;;
32501;SDS011;18952;52.516;13.460;2023-09-12T06:56:18;27.98;;;15.10;;
32501;SDS011;18952;52.516;13.460;2023-09-12T06:58:45;27.17;;;14.63;;
32501;SDS011;18952;52.516;13.460;2023-09-12T07:01:12;32.17;;;15.23;;
32501;SDS011;18952;52.516;13.460;2023-09-12T07:03:39;41.00;;;15.07;;
32501;SDS011;18952;52.516;13.460;2023-09-12T07:06:07;28.50;;;13.85;;
32501;SDS011;18952;52.516;13.460;2023-09-12T07:08:33;25.77;;;11.77;;
32501;SDS011;18952;52.516;13.460;2023-09-12T07:11:00;19.67;;;11.43;;
32501;SDS011;18952;52.516;13.460;2023-09-12T07:13:27;28.17;;;11.45;;
32501;SDS011;18952;52.516;13.460;2023-09-12T07:15:56;25.42;;;11.77;;
32501;SDS011;18952;52.516;13.460;2023-09-12T07:18:23;22.20;;;11.43;;
32501;SDS011;18952;52.516;13.460;2023-09-12T07:20:59;31.77;;;12.65;;
32501;SDS011;18952;52.516;13.460;2023-09-12T07:23:27;25.08;;;11.93;;
32501;SDS011;18952;52.516;13.460;2023-09-12T07:25:55;24.40;;;11.73;;
32501;SDS011;18952;52.516;13.460;2023-09-12T07:28:23;25.05;;;12.10;;
32501;SDS011;18952;52.516;13.460;2023-09-12T07:30:50;21.55;;;11.20;;
32501;SDS011;18952;52.516;13.460;2023-09-12T07:33:17;26.85;;;11.18;;
32501;SDS011;18952;52.516;13.460;2023-09-12T07:35:44;18.83;;;11.45;;
32501;SDS011;18952;52.516;13.460;2023-09-12T07:38:11;25.23;;;11.25;;
32501;SDS011;18952;52.516;13.460;2023-09-12T07:40:38;28.52;;;11.70;;
32501;SDS011;18952;52.516;13.460;2023-09-12T07:43:04;34.10;;;11.57;;
32501;SDS011;18952;52.516;13.460;2023-09-12T07:45:31;29.33;;;11.30;;
32501;SDS011;18952;52.516;13.460;2023-09-12T07:48:00;25.98;;;11.38;;
32501;SDS011;18952;52.516;13.460;2023-09-12T07:50:28;17.60;;;10.13;;
32501;SDS011;18952;52.516;13.460;2023-09-12T07:52:55;26.92;;;12.48;;
32501;SDS011;18952;52.516;13.460;2023-09-12T07:55:23;25.40;;;10.07;;
32501;SDS011;18952;52.516;13.460;2023-09-12T07:57:50;35.67;;;11.65;;
32501;SDS011;18952;52.516;13.460;2023-09-12T08:00:17;31.50;;;11.10;;
32501;SDS011;18952;52.516;13.460;2023-09-12T08:02:43;22.88;;;10.57;;
32501;SDS011;18952;52.516;13.460;2023-09-12T08:05:10;21.38;;;10.18;;
32501;SDS011;18952;52.516;13.460;2023-09-12T08:07:37;21.25;;;10.38;;
32501;SDS011;18952;52.516;13.460;2023-09-12T08:10:04;23.15;;;9.07;;
32501;SDS011;18952;52.516;13.460;2023-09-12T08:12:31;24.52;;;9.35;;
32501;SDS011;18952;52.516;13.460;2023-09-12T08:14:58;25.27;;;9.48;;
32501;SDS011;18952;52.516;13.460;2023-09-12T08:17:26;23.80;;;8.63;;
32501;SDS011;18952;52.516;13.460;2023-09-12T08:19:53;28.00;;;9.57;;
32501;SDS011;18952;52.516;13.460;2023-09-12T08:22:20;20.50;;;8.00;;
32501;SDS011;18952;52.516;13.460;2023-09-12T08:24:47;17.65;;;8.07;;
32501;SDS011;18952;52.516;13.460;2023-09-12T08:27:14;32.67;;;8.63;;
32501;SDS011;18952;52.516;13.460;2023-09-12T08:29:41;19.33;;;7.70;;
32501;SDS011;18952;52.516;13.460;2023-09-12T08:32:08;22.92;;;7.95;;
32501;SDS011;18952;52.516;13.460;2023-09-12T08:34:41;15.32;;;7.10;;
32501;SDS011;18952;52.516;13.460;2023-09-12T08:37:11;22.30;;;7.00;;
32501;SDS011;18952;52.516;13.460;2023-09-12T08:39:42;23.10;;;7.60;;
32501;SDS011;18952;52.516;13.460;2023-09-12T08:42:14;24.42;;;7.63;;
32501;SDS011;18952;52.516;13.460;2023-09-12T08:44:42;18.15;;;6.90;;
32501;SDS011;18952;52.516;13.460;2023-09-12T08:47:09;21.77;;;6.47;;
32501;SDS011;18952;52.516;13.460;2023-09-12T08:49:37;29.70;;;7.15;;
32501;SDS011;18952;52.516;13.460;2023-09-12T08:52:05;17.73;;;7.60;;
32501;SDS011;18952;52.516;13.460;2023-09-12T08:54:32;20.98;;;7.10;;
32501;SDS011;18952;52.516;13.460;2023-09-12T08:57:03;16.40;;;7.20;;
32501;SDS011;18952;52.516;13.460;2023-09-12T08:59:32;20.75;;;8.00;;
32501;SDS011;18952;52.516;13.460;2023-09-12T09:02:00;19.83;;;7.13;;
32501;SDS011;18952;52.516;13.460;2023-09-12T09:04:29;18.85;;;7.10;;
32501;SDS011;18952;52.516;13.460;2023-09-12T09:06:58;21.38;;;7.07;;
32501;SDS011;18952;52.516;13.460;2023-09-12T09:09:26;20.65;;;7.10;;
32501;SDS011;18952;52.516;13.460;2023-09-12T09:11:54;20.45;;;6.80;;
32501;SDS011;18952;52.516;13.460;2023-09-12T09:14:21;20.58;;;6.75;;
32501;SDS011;18952;52.516;13.460;2023-09-12T09:16:48;19.38;;;6.53;;
32501;SDS011;18952;52.516;13.460;2023-09-12T09:19:16;26.45;;;6.95;;
32501;SDS011;18952;52.516;13.460;2023-09-12T09:21:45;24.75;;;7.50;;
32501;SDS011;18952;52.516;13.460;2023-09-12T09:24:13;21.30;;;6.45;;
32501;SDS011;18952;52.516;13.460;2023-09-12T09:26:43;20.33;;;6.78;;
32501;SDS011;18952;52.516;13.460;2023-09-12T09:29:17;13.57;;;6.30;;
32501;SDS011;18952;52.516;13.460;2023-09-12T09:31:46;39.45;;;7.63;;
32501;SDS011;18952;52.516;13.460;2023-09-12T09:34:19;21.85;;;6.65;;
32501;SDS011;18952;52.516;13.460;2023-09-12T09:36:48;18.45;;;6.60;;
32501;SDS011;18952;52.516;13.460;2023-09-12T09:39:17;16.60;;;6.57;;
32501;SDS011;18952;52.516;13.460;2023-09-12T09:41:50;13.65;;;6.43;;
32501;SDS011;18952;52.516;13.460;2023-09-12T09:44:27;19.67;;;7.20;;
32501;SDS011;18952;52.516;13.460;2023-09-12T09:46:55;19.60;;;6.32;;
32501;SDS011;18952;52.516;13.460;2023-09-12T09:49:24;23.83;;;7.68;;
32501;SDS011;18952;52.516;13.460;2023-09-12T09:51:51;17.08;;;7.70;;
32501;SDS011;18952;52.516;13.460;2023-09-12T09:54:21;22.75;;;8.40;;
32501;SDS011;18952;52.516;13.460;2023-09-12T09:56:53;29.30;;;7.95;;
32501;SDS011;18952;52.516;13.460;2023-09-12T09:59:23;22.77;;;7.88;;
32501;SDS011;18952;52.516;13.460;2023-09-12T10:01:55;30.02;;;9.00;;
32501;SDS011;18952;52.516;13.460;2023-09-12T10:04:23;20.05;;;7.78;;
32501;SDS011;18952;52.516;13.460;2023-09-12T10:06:53;23.08;;;7.70;;
32501;SDS011;18952;52.516;13.460;2023-09-12T10:09:23;22.40;;;8.43;;
32501;SDS011;18952;52.516;13.460;2023-09-12T10:11:59;18.92;;;9.00;;
32501;SDS011;18952;52.516;13.460;2023-09-12T10:14:26;20.25;;;8.25;;
32501;SDS011;18952;52.516;13.460;2023-09-12T10:16:57;22.42;;;8.98;;
32501;SDS011;18952;52.516;13.460;2023-09-12T10:19:54;20.77;;;8.85;;
32501;SDS011;18952;52.516;13.460;2023-09-12T10:22:53;25.17;;;9.80;;
32501;SDS011;18952;52.516;13.460;2023-09-12T10:25:36;19.23;;;9.23;;
32501;SDS011;18952;52.516;13.460;2023-09-12T10:28:07;21.45;;;8.50;;
32501;SDS011;18952;52.516;13.460;2023-09-12T10:30:34;24.98;;;9.85;;
32501;SDS011;18952;52.516;13.460;2023-09-12T10:33:02;20.90;;;9.32;;
32501;SDS011;18952;52.516;13.460;2023-09-12T10:35:30;24.02;;;8.82;;
32501;SDS011;18952;52.516;13.460;2023-09-12T10:37:59;26.17;;;8.82;;
32501;SDS011;18952;52.516;13.460;2023-09-12T10:40:31;16.05;;;7.85;;
32501;SDS011;18952;52.516;13.460;2023-09-12T10:43:08;21.92;;;8.00;;
32501;SDS011;18952;52.516;13.460;2023-09-12T10:45:37;22.75;;;8.70;;
32501;SDS011;18952;52.516;13.460;2023-09-12T10:48:04;20.92;;;7.95;;
32501;SDS011;18952;52.516;13.460;2023-09-12T10:50:31;28.65;;;8.40;;
32501;SDS011;18952;52.516;13.460;2023-09-12T10:53:16;19.27;;;7.80;;
32501;SDS011;18952;52.516;13.460;2023-09-12T10:55:43;24.27;;;7.63;;
32501;SDS011;18952;52.516;13.460;2023-09-12T10:59:13;18.17;;;7.35;;
32501;SDS011;18952;52.516;13.460;2023-09-12T11:01:42;17.85;;;7.50;;
32501;SDS011;18952;52.516;13.460;2023-09-12T11:06:49;23.52;;;8.20;;
32501;SDS011;18952;52.516;13.460;2023-09-12T11:09:23;19.08;;;7.65;;
32501;SDS011;18952;52.516;13.460;2023-09-12T11:11:55;24.52;;;7.53;;
32501;SDS011;18952;52.516;13.460;2023-09-12T11:14:24;19.50;;;8.10;;
32501;SDS011;18952;52.516;13.460;2023-09-12T11:19:47;17.38;;;8.10;;
32501;SDS011;18952;52.516;13.460;2023-09-12T11:24:52;19.52;;;7.43;;
32501;SDS011;18952;52.516;13.460;2023-09-12T11:27:19;17.05;;;7.55;;
32501;SDS011;18952;52.516;13.460;2023-09-12T11:29:46;23.90;;;7.35;;
32501;SDS011;18952;52.516;13.460;2023-09-12T11:32:24;18.02;;;7.35;;
32501;SDS011;18952;52.516;13.460;2023-09-12T11:35:06;17.02;;;7.13;;
32501;SDS011;18952;52.516;13.460;2023-09-12T11:37:56;17.33;;;8.00;;
32501;SDS011;18952;52.516;13.460;2023-09-12T11:40:45;18.35;;;7.68;;
32501;SDS011;18952;52.516;13.460;2023-09-12T11:43:22;15.63;;;6.97;;
32501;SDS011;18952;52.516;13.460;2023-09-12T11:45:50;23.83;;;7.30;;
32501;SDS011;18952;52.516;13.460;2023-09-12T11:48:18;26.75;;;8.13;;
32501;SDS011;18952;52.516;13.460;2023-09-12T11:50:52;20.80;;;7.60;;
32501;SDS011;18952;52.516;13.460;2023-09-12T11:55:49;16.17;;;6.90;;
32501;SDS011;18952;52.516;13.460;2023-09-12T11:58:24;17.25;;;6.97;;
32501;SDS011;18952;52.516;13.460;2023-09-12T12:00:55;16.92;;;6.45;;
32501;SDS011;18952;52.516;13.460;2023-09-12T12:03:24;15.70;;;6.55;;
32501;SDS011;18952;52.516;13.460;2023-09-12T12:05:53;14.40;;;6.32;;
32501;SDS011;18952;52.516;13.460;2023-09-12T12:08:21;21.63;;;6.70;;
32501;SDS011;18952;52.516;13.460;2023-09-12T12:10:57;13.02;;;6.25;;
32501;SDS011;18952;52.516;13.460;2023-09-12T12:13:33;21.20;;;6.47;;
32501;SDS011;18952;52.516;13.460;2023-09-12T12:16:00;12.05;;;5.85;;
32501;SDS011;18952;52.516;13.460;2023-09-12T12:18:39;14.48;;;6.63;;
32501;SDS011;18952;52.516;13.460;2023-09-12T12:21:07;16.77;;;6.10;;
32501;SDS011;18952;52.516;13.460;2023-09-12T12:23:34;13.38;;;5.43;;
32501;SDS011;18952;52.516;13.460;2023-09-12T12:26:10;13.82;;;5.57;;
32501;SDS011;18952;52.516;13.460;2023-09-12T12:28:40;11.63;;;5.95;;
32501;SDS011;18952;52.516;13.460;2023-09-12T12:31:11;11.13;;;5.57;;
32501;SDS011;18952;52.516;13.460;2023-09-12T12:33:39;12.55;;;5.55;;
32501;SDS011;18952;52.516;13.460;2023-09-12T12:36:25;11.48;;;5.90;;
32501;SDS011;18952;52.516;13.460;2023-09-12T12:38:53;13.52;;;6.03;;
32501;SDS011;18952;52.516;13.460;2023-09-12T12:41:39;13.40;;;5.88;;
32501;SDS011;18952;52.516;13.460;2023-09-12T12:44:16;15.65;;;5.82;;
32501;SDS011;18952;52.516;13.460;2023-09-12T12:46:50;16.85;;;6.07;;
32501;SDS011;18952;52.516;13.460;2023-09-12T12:49:18;13.85;;;5.80;;
32501;SDS011;18952;52.516;13.460;2023-09-12T12:51:48;11.93;;;5.88;;
32501;SDS011;18952;52.516;13.460;2023-09-12T12:54:15;11.43;;;5.57;;
32501;SDS011;18952;52.516;13.460;2023-09-12T12:56:43;12.50;;;5.30;;
32501;SDS011;18952;52.516;13.460;2023-09-12T12:59:10;15.27;;;5.97;;
32501;SDS011;18952;52.516;13.460;2023-09-12T13:01:37;19.15;;;5.72;;
32501;SDS011;18952;52.516;13.460;2023-09-12T13:04:08;22.70;;;7.18;;
32501;SDS011;18952;52.516;13.460;2023-09-12T13:06:36;14.10;;;6.22;;
32501;SDS011;18952;52.516;13.460;2023-09-12T13:09:03;16.33;;;5.78;;
32501;SDS011;18952;52.516;13.460;2023-09-12T13:11:31;14.10;;;5.60;;
32501;SDS011;18952;52.516;13.460;2023-09-12T13:13:59;14.57;;;5.85;;
32501;SDS011;18952;52.516;13.460;2023-09-12T13:16:26;14.48;;;5.40;;
32501;SDS011;18952;52.516;13.460;2023-09-12T13:18:53;32.33;;;6.75;;
32501;SDS011;18952;52.516;13.460;2023-09-12T13:21:19;15.55;;;6.20;;
32501;SDS011;18952;52.516;13.460;2023-09-12T13:23:46;27.58;;;5.75;;
32501;SDS011;18952;52.516;13.460;2023-09-12T13:26:13;17.50;;;5.50;;
32501;SDS011;18952;52.516;13.460;2023-09-12T13:28:40;15.35;;;5.45;;
32501;SDS011;18952;52.516;13.460;2023-09-12T13:31:07;14.73;;;5.60;;
32501;SDS011;18952;52.516;13.460;2023-09-12T13:33:34;19.05;;;4.85;;
32501;SDS011;18952;52.516;13.460;2023-09-12T13:36:01;15.93;;;5.50;;
32501;SDS011;18952;52.516;13.460;2023-09-12T13:38:28;13.10;;;4.95;;
32501;SDS011;18952;52.516;13.460;2023-09-12T13:40:55;13.38;;;5.32;;
32501;SDS011;18952;52.516;13.460;2023-09-12T13:43:22;11.73;;;5.07;;
32501;SDS011;18952;52.516;13.460;2023-09-12T13:45:48;23.65;;;6.28;;
32501;SDS011;18952;52.516;13.460;2023-09-12T13:48:17;15.40;;;4.95;;
32501;SDS011;18952;52.516;13.460;2023-09-12T13:50:44;17.33;;;5.00;;
32501;SDS011;18952;52.516;13.460;2023-09-12T13:53:11;16.55;;;6.25;;
32501;SDS011;18952;52.516;13.460;2023-09-12T13:55:38;14.55;;;5.68;;
32501;SDS011;18952;52.516;13.460;2023-09-12T13:58:12;14.93;;;5.72;;
32501;SDS011;18952;52.516;13.460;2023-09-12T14:00:39;13.13;;;5.32;;
32501;SDS011;18952;52.516;13.460;2023-09-12T14:03:09;12.90;;;5.22;;
32501;SDS011;18952;52.516;13.460;2023-09-12T14:05:40;22.08;;;5.57;;
32501;SDS011;18952;52.516;13.460;2023-09-12T14:08:08;12.73;;;5.88;;
32501;SDS011;18952;52.516;13.460;2023-09-12T14:10:35;10.50;;;5.40;;
32501;SDS011;18952;52.516;13.460;2023-09-12T14:13:05;12.02;;;5.60;;
32501;SDS011;18952;52.516;13.460;2023-09-12T14:15:47;20.80;;;5.35;;
32501;SDS011;18952;52.516;13.460;2023-09-12T14:18:17;13.18;;;5.22;;
32501;SDS011;18952;52.516;13.460;2023-09-12T14:20:47;15.45;;;5.35;;
32501;SDS011;18952;52.516;13.460;2023-09-12T14:23:19;14.10;;;5.13;;
32501;SDS011;18952;52.516;13.460;2023-09-12T14:25:52;15.68;;;5.03;;
32501;SDS011;18952;52.516;13.460;2023-09-12T14:28:20;14.70;;;5.30;;
32501;SDS011;18952;52.516;13.460;2023-09-12T14:30:47;18.75;;;5.60;;
32501;SDS011;18952;52.516;13.460;2023-09-12T14:33:15;12.88;;;4.63;;
32501;SDS011;18952;52.516;13.460;2023-09-12T14:35:44;24.80;;;6.22;;